• Join FlightAware (Why Join?)
  • Login
  • US Flag 
12:31AM EST


 

Airport Tracker/Info


-or-


 

Live Flight TrackerFlight Track Log ✈ SWA4488 ✈ 25-Dec-2013 ✈ KDEN - KMCI

Flight Track Log - Related Links

Times and Time Zones

All times are in EST time to prevent confusion due to time zone crossing. See the SWA4488 flight status page for this flight to view local times or setup timezone preferences in your user account.

Time Position Orientation Groundspeed Altitude Reporting Facility
EST Latitude Longitude Course Direction KTS MPH feet Rate Location/Type
10:00PM 39.8167 -104.6333 90° East 182 209 6,900  Level Denver TRACON
10:01PM 39.8000 -104.5500 105° East 264 304 9,300 1,620 Climbing Denver TRACON
10:02PM 39.7847 -104.4633 103° East 294 338 10,000 2,040 Climbing Denver Center
10:03PM 39.7775 -104.3536 95° East 306 352 13,200 2,460 Climbing Denver Center
10:04PM 39.7700 -104.2261 94° East 364 419 15,100 2,400 Climbing Denver Center
10:05PM 39.7608 -104.0722 94° East 416 479 18,100 3,240 Climbing Denver Center
10:06PM 39.8495 -103.9481 90° East  Level Estimated
10:06PM 39.7383 -103.9061 100° East 442 509 21,800  Level Denver Center
10:07PM 39.7275 -103.7547 95° East 443 510 24,500 2,460 Climbing Denver Center
10:08PM 39.7167 -103.5950 95° East 443 510 26,900 2,520 Climbing Denver Center
10:09PM 39.7033 -103.4244 96° East 466 536 29,700 2,760 Climbing Denver Center
10:10PM 39.6908 -103.2617 96° East 458 527 32,600 2,520 Climbing Denver Center
10:11PM 39.6800 -103.1025 95° East 445 512 34,900 2,160 Climbing Denver Center
10:12PM 39.6653 -102.9103 96° East 446 513 37,100 1,740 Climbing Denver Center
10:13PM 39.6728 -102.7514 86° East 443 510 38,500 1,080 Climbing Denver Center
10:14PM 39.6681 -102.5947 92° East 455 524 39,400 840 Climbing Denver Center
10:15PM 39.6519 -102.4350 97° East 466 536 40,300 780 Climbing Denver Center
10:16PM 39.6347 -102.2461 97° East 472 543 41,000 300 Climbing Denver Center
10:17PM 39.6197 -102.0808 97° East 481 554 41,000  Level Denver Center
10:19PM 39.6025 -101.8881 97° East 483 556 41,000  Level Denver Center
10:20PM 39.5864 -101.7233 97° East 483 556 41,000  Level Denver Center
10:21PM 39.5703 -101.5586 97° East 481 554 41,000  Level Denver Center
10:22PM 39.5508 -101.3667 97° East 482 555 41,000  Level Denver Center
10:23PM 39.5350 -101.2028 97° East 480 552 41,000  Level Denver Center
10:24PM 39.5183 -101.0389 97° East 480 552 41,000  Level Denver Center
10:25PM 39.4989 -100.8456 97° East 485 558 41,000  Level Denver Center
10:26PM 39.4817 -100.6811 98° East 484 557 41,000  Level Denver Center
10:27PM 39.4611 -100.4900 98° East 482 555 41,000  Level Denver Center
10:28PM 39.4431 -100.3253 98° East 483 556 41,000  Level Denver Center
10:29PM 39.4256 -100.1592 98° East 487 560 41,000  Level Denver Center
10:30PM 39.4039 -99.9636 98° East 492 566 41,000  Level Denver Center
10:31PM 39.3844 -99.7994 99° East 487 560 41,000  Level Denver Center
10:32PM 39.3628 -99.6036 98° East 492 566 41,000  Level Denver Center
10:33PM 39.3442 -99.4386 98° East 487 560 41,000  Level Denver Center
10:34PM 39.3247 -99.2728 99° East 488 562 41,000  Level Denver Center
10:35PM 39.3069 -99.1244 99° East 486 559 41,000  Level Kansas City Center
10:36PM 39.2858 -98.9528 99° East 485 558 41,000  Level Kansas City Center
10:37PM 39.2656 -98.7767 98° East 481 554 41,000  Level Kansas City Center
10:38PM 39.2439 -98.6131 100° East 483 556 41,000  Level Kansas City Center
10:39PM 39.2236 -98.4339 98° East 487 560 41,000  Level Kansas City Center
10:40PM 39.2014 -98.2650 100° East 487 560 41,000  Level Kansas City Center
10:41PM 39.1817 -98.0931 98° East 486 559 41,000  Level Kansas City Center
10:42PM 39.1586 -97.9200 100° East 487 560 41,000  Level Kansas City Center
10:43PM 39.1317 -97.7339 101° East 490 564 41,000  Level Kansas City Center
10:44PM 39.1111 -97.5681 99° East 490 564 41,000  Level Kansas City Center
10:45PM 39.0892 -97.4028 100° East 489 563 41,000  Level Kansas City Center
10:46PM 39.0631 -97.2097 100° East 491 565 41,000 -1,380 Level Kansas City Center
10:47PM 39.0425 -97.0436 99° East 490 564 38,300 -2,460 Descending Kansas City Center
10:48PM 39.0192 -96.8803 100° East 489 563 36,100 -2,820 Descending Kansas City Center
10:49PM 38.9933 -96.7017 100° East 465 535 32,700 -3,180 Descending Kansas City Center
10:50PM 38.9758 -96.5633 99° East 452 520 29,800 -2,700 Descending Kansas City Center
10:51PM 38.9522 -96.4053 101° East 440 506 27,300 -2,520 Descending Kansas City Center
10:52PM 38.9272 -96.2414 101° East 426 490 24,800 -2,340 Descending Kansas City Center
10:53PM 38.9072 -96.1039 101° East 415 478 22,600 -1,980 Descending Kansas City Center
10:54PM 38.8894 -95.9650 99° East 413 475 20,800 -1,440 Descending Kansas City Center
10:55PM 38.8919 -95.8053 89° East 404 465 19,700 -1,200 Descending Kansas City Center
10:56PM 38.8928 -95.6683 90° East 403 464 18,400 -1,740 Descending Kansas City Center
10:57PM 38.9219 -95.5464 73° East 373 429 16,200 -2,760 Descending Kansas City Center
10:58PM 38.9728 -95.4136 64° Northeast 372 428 12,800 -3,000 Descending Kansas City Center
10:59PM 39.0133 -95.3039 65° Northeast 358 412 10,200 -1,800 Descending Kansas City Center
11:00PM 39.0469 -95.2103 65° Northeast 309 356 9,200 -1,380 Descending Kansas City Center
11:01PM 39.0833 -95.1119 64° Northeast 274 315 7,400 -1,680 Descending Kansas City Center
11:02PM 39.1131 -95.0311 65° Northeast 264 304 5,900 -1,560 Descending Kansas City Center
11:03PM 39.1478 -94.9372 64° Northeast 262 302 4,300 -1,140 Descending Kansas City Center
11:04PM 39.1756 -94.8619 65° Northeast 246 283 3,700 -600 Descending Kansas City Center
11:05PM 39.1983 -94.8050 63° Northeast 185 213 3,100 -720 Descending Kansas City Center
11:06PM 39.2292 -94.7611 48° Northeast 149 171 2,300 -660 Descending Kansas City Center
11:07PM 39.2572 -94.7389 32° Northeast 127 146 1,800 -600 Descending Kansas City Center
11:08PM 39.2875 -94.7300 13° North 117 135 1,200 -600 Descending Kansas City Center
11:10PM 39.2976 -94.7139 67° East  Level Estimated